Terminal Aerodrome Forecast
Issued by NWS Cleveland, OH

Home | Current Version | Previous Version | Graphics & Text | Print | Product List | Glossary Off
Versions: 1 2 3 4 5 6 7 8 9 10 11 12 13 14 15 16 17 18 19 20

302
FTUS41 KCLE 291746 CCA
TAFYNG
TAF COR
KYNG 291746Z 2918/3018 29005KT 2SM BR OVC008
      TEMPO 2918/2921 5SM -SHRA
     FM292100 34008KT P6SM OVC015
     FM292300 36006KT P6SM BKN025
     FM300900 VRB03KT 5SM BR OVC006=

USA.gov is the U.S. government's official web portal to all federal, state and local government web resources and services.